KHB9204 LLBG-UHHH
Flight info
| Callsign | KHB9204 |
|---|---|
| Flight time | N/A |
| Altitude | 30000 |
| Route | DAFNA DCT MERVA N131 VELOX N71 ALSUS/N0474F310 M978 NIKAS R785 BAN W6 ALE B544 TUSYR/N0475F300 UB36 GAZ/N0472F310 UW701 ERZ UB374 INDUR N161 PEMAN N996 SUBUT T916 LEYLA N161 GASBI/K0869F310 N161 ARLIF/K0865F330 N161 MASAV N55 ATNON/K0852F350 N55 DAKIN B808 ODIDA B926 KESED B151 ROVNO W176 UNDUS/K0854F370 W176 TISBU W174 KOTIB B151 BRT G363 RIMIB/K0869F390 G363 GU N992 TORMA A946 IVADA IVADA6D |
| Aircraft | IL62/H-SDFGHIM1RTUWXY/LB1 |
Departure
| Time | N/A |
|---|---|
| Airport | Ben Gurion International Airport (LLBG) |
Arrival
| Time | 2026-04-22 17:04 |
|---|---|
| Airport | Khabarovsk Novy Airport (UHHH) |
| Time | Latitude | Longitude | Altitude | Speed | Heading |
|---|---|---|---|---|---|
| 2026-04-22 13:33 | 55.86686 | 94.98157 | 39130 ft | 492 kts | 78° |
| 2026-04-22 13:34 | 55.87096 | 95.04216 | 39130 ft | 492 kts | 78° |
| 2026-04-22 13:34 | 55.87898 | 95.16270 | 39129 ft | 493 kts | 78° |
| 2026-04-22 13:35 | 55.88706 | 95.28412 | 39128 ft | 493 kts | 78° |
| 2026-04-22 13:35 | 55.89502 | 95.40553 | 39127 ft | 493 kts | 78° |
| 2026-04-22 13:36 | 55.90290 | 95.52698 | 39126 ft | 494 kts | 78° |
| 2026-04-22 13:36 | 55.91064 | 95.64776 | 39125 ft | 493 kts | 78° |
| 2026-04-22 13:37 | 55.91832 | 95.77018 | 39123 ft | 493 kts | 78° |
| 2026-04-22 13:37 | 55.92578 | 95.89100 | 39122 ft | 493 kts | 78° |
| 2026-04-22 13:38 | 55.93319 | 96.01274 | 39121 ft | 494 kts | 78° |
| 2026-04-22 13:38 | 55.94389 | 96.19553 | 39119 ft | 494 kts | 79° |
| 2026-04-22 13:39 | 55.95095 | 96.31747 | 39118 ft | 494 kts | 79° |
| 2026-04-22 13:39 | 55.95791 | 96.43939 | 39117 ft | 494 kts | 79° |
| 2026-04-22 13:40 | 55.96475 | 96.56150 | 39116 ft | 494 kts | 79° |
| 2026-04-22 13:40 | 55.97147 | 96.68292 | 39115 ft | 494 kts | 79° |
| 2026-04-22 13:41 | 55.97808 | 96.80533 | 39113 ft | 495 kts | 79° |
| 2026-04-22 13:41 | 55.98463 | 96.92760 | 39112 ft | 495 kts | 79° |
| 2026-04-22 13:42 | 55.99095 | 97.05001 | 39111 ft | 495 kts | 80° |
| 2026-04-22 13:42 | 55.99709 | 97.17254 | 39110 ft | 495 kts | 79° |
| 2026-04-22 13:43 | 56.00319 | 97.29436 | 39109 ft | 494 kts | 80° |
| 2026-04-22 13:43 | 56.00924 | 97.41680 | 39107 ft | 493 kts | 80° |
| 2026-04-22 13:44 | 56.01509 | 97.53912 | 39106 ft | 494 kts | 80° |
| 2026-04-22 13:44 | 56.02090 | 97.66155 | 39105 ft | 494 kts | 80° |
| 2026-04-22 13:45 | 56.02657 | 97.78396 | 39104 ft | 495 kts | 80° |
| 2026-04-22 13:45 | 56.03198 | 97.90676 | 39103 ft | 495 kts | 81° |
| 2026-04-22 13:46 | 56.03736 | 98.02942 | 39102 ft | 495 kts | 81° |
| 2026-04-22 13:46 | 56.04235 | 98.15214 | 39100 ft | 495 kts | 81° |
| 2026-04-22 13:47 | 56.04728 | 98.27423 | 39101 ft | 495 kts | 81° |
| 2026-04-22 13:47 | 56.05204 | 98.39718 | 39101 ft | 495 kts | 81° |
| 2026-04-22 13:48 | 56.05679 | 98.51995 | 39100 ft | 495 kts | 82° |
| 2026-04-22 13:48 | 56.06135 | 98.64277 | 39099 ft | 494 kts | 82° |
| 2026-04-22 13:49 | 56.06570 | 98.76582 | 39098 ft | 494 kts | 82° |
| 2026-04-22 13:49 | 56.07017 | 98.88863 | 39097 ft | 494 kts | 82° |
| 2026-04-22 13:50 | 56.07443 | 99.01135 | 39096 ft | 494 kts | 82° |
| 2026-04-22 13:50 | 56.07847 | 99.13346 | 39095 ft | 494 kts | 82° |
| 2026-04-22 13:51 | 56.08438 | 99.25582 | 39097 ft | 493 kts | 77° |
| 2026-04-22 13:51 | 56.09618 | 99.37680 | 39093 ft | 492 kts | 73° |
| 2026-04-22 13:52 | 56.11052 | 99.49654 | 39092 ft | 490 kts | 72° |
| 2026-04-22 13:52 | 56.12548 | 99.61572 | 39091 ft | 489 kts | 72° |
| 2026-04-22 13:53 | 56.14027 | 99.73388 | 39091 ft | 489 kts | 72° |
| 2026-04-22 13:53 | 56.15531 | 99.85357 | 39091 ft | 490 kts | 72° |
| 2026-04-22 13:54 | 56.16768 | 99.95277 | 39087 ft | 490 kts | 72° |
| 2026-04-22 13:54 | 56.18268 | 100.07224 | 39088 ft | 490 kts | 72° |
| 2026-04-22 13:55 | 56.19737 | 100.19179 | 39088 ft | 490 kts | 72° |
| 2026-04-22 13:55 | 56.21207 | 100.31149 | 39088 ft | 490 kts | 72° |
| 2026-04-22 13:56 | 56.22659 | 100.43113 | 39088 ft | 489 kts | 73° |
| 2026-04-22 13:56 | 56.24101 | 100.54984 | 39087 ft | 489 kts | 73° |
| 2026-04-22 13:57 | 56.25542 | 100.67009 | 39087 ft | 488 kts | 73° |
| 2026-04-22 13:57 | 56.26955 | 100.78876 | 39087 ft | 487 kts | 73° |
| 2026-04-22 13:58 | 56.28349 | 100.90817 | 39086 ft | 487 kts | 73° |
| 2026-04-22 13:58 | 56.29756 | 101.02760 | 39086 ft | 487 kts | 74° |
| 2026-04-22 13:59 | 56.31129 | 101.14698 | 39085 ft | 486 kts | 74° |
| 2026-04-22 13:59 | 56.32500 | 101.26648 | 39085 ft | 487 kts | 74° |
| 2026-04-22 14:00 | 56.33856 | 101.38594 | 39088 ft | 486 kts | 74° |
| 2026-04-22 14:00 | 56.35196 | 101.50468 | 39086 ft | 486 kts | 74° |
| 2026-04-22 14:01 | 56.36375 | 101.62518 | 39087 ft | 488 kts | 79° |
| 2026-04-22 14:01 | 56.36825 | 101.74766 | 39084 ft | 490 kts | 85° |
| 2026-04-22 14:02 | 56.36884 | 101.87112 | 39084 ft | 493 kts | 87° |
| 2026-04-22 14:02 | 56.36778 | 101.99497 | 39085 ft | 494 kts | 88° |
| 2026-04-22 14:03 | 56.36641 | 102.11813 | 39085 ft | 494 kts | 88° |
| 2026-04-22 14:03 | 56.36470 | 102.24235 | 39085 ft | 494 kts | 89° |
| 2026-04-22 14:04 | 56.36284 | 102.36641 | 39085 ft | 494 kts | 89° |
| 2026-04-22 14:04 | 56.36056 | 102.49025 | 39085 ft | 493 kts | 89° |
| 2026-04-22 14:05 | 56.35852 | 102.61392 | 39085 ft | 493 kts | 89° |
| 2026-04-22 14:06 | 56.35504 | 102.79826 | 39085 ft | 492 kts | 89° |
| 2026-04-22 14:06 | 56.35254 | 102.92159 | 39085 ft | 491 kts | 89° |
| 2026-04-22 14:07 | 56.34992 | 103.04462 | 39090 ft | 491 kts | 90° |
| 2026-04-22 14:07 | 56.34716 | 103.16754 | 39105 ft | 491 kts | 90° |
| 2026-04-22 14:08 | 56.34429 | 103.29074 | 39110 ft | 491 kts | 90° |
| 2026-04-22 14:08 | 56.34122 | 103.41286 | 39112 ft | 491 kts | 90° |
| 2026-04-22 14:09 | 56.33838 | 103.53579 | 39113 ft | 491 kts | 90° |
| 2026-04-22 14:09 | 56.33526 | 103.65910 | 39113 ft | 492 kts | 90° |
| 2026-04-22 14:10 | 56.33208 | 103.78219 | 39112 ft | 492 kts | 90° |
| 2026-04-22 14:10 | 56.32876 | 103.90574 | 39112 ft | 493 kts | 90° |
| 2026-04-22 14:11 | 56.32530 | 104.02848 | 39112 ft | 493 kts | 91° |
| 2026-04-22 14:11 | 56.32165 | 104.15191 | 39112 ft | 493 kts | 91° |
| 2026-04-22 14:12 | 56.31785 | 104.27541 | 39112 ft | 493 kts | 91° |
| 2026-04-22 14:12 | 56.31389 | 104.39938 | 39109 ft | 492 kts | 91° |
| 2026-04-22 14:13 | 56.30984 | 104.52166 | 39105 ft | 492 kts | 91° |
| 2026-04-22 14:13 | 56.30562 | 104.64474 | 39103 ft | 491 kts | 91° |
| 2026-04-22 14:14 | 56.30130 | 104.76745 | 39102 ft | 490 kts | 91° |
| 2026-04-22 14:14 | 56.29685 | 104.88996 | 39100 ft | 489 kts | 92° |
| 2026-04-22 14:15 | 56.29231 | 105.01144 | 39100 ft | 489 kts | 92° |
| 2026-04-22 14:15 | 56.28773 | 105.13361 | 39098 ft | 489 kts | 92° |
| 2026-04-22 14:16 | 56.28295 | 105.25563 | 39097 ft | 488 kts | 92° |
| 2026-04-22 14:16 | 56.27789 | 105.37757 | 39097 ft | 489 kts | 92° |
| 2026-04-22 14:17 | 56.27298 | 105.49966 | 39095 ft | 489 kts | 92° |
| 2026-04-22 14:17 | 56.26780 | 105.62191 | 39094 ft | 489 kts | 92° |
| 2026-04-22 14:18 | 56.26263 | 105.74315 | 39093 ft | 490 kts | 92° |
| 2026-04-22 14:18 | 56.25722 | 105.86545 | 39092 ft | 490 kts | 92° |
| 2026-04-22 14:19 | 56.25171 | 105.98759 | 39091 ft | 490 kts | 92° |
| 2026-04-22 14:19 | 56.24611 | 106.11001 | 39091 ft | 490 kts | 93° |
| 2026-04-22 14:20 | 56.23749 | 106.29311 | 39089 ft | 490 kts | 93° |
| 2026-04-22 14:20 | 56.23154 | 106.41512 | 39088 ft | 489 kts | 93° |
| 2026-04-22 14:21 | 56.22243 | 106.59685 | 39087 ft | 488 kts | 94° |
| 2026-04-22 14:22 | 56.21305 | 106.77888 | 39085 ft | 486 kts | 94° |
| 2026-04-22 14:23 | 56.20345 | 106.96012 | 39084 ft | 485 kts | 94° |
| 2026-04-22 14:23 | 56.19682 | 107.08052 | 39083 ft | 484 kts | 94° |
| 2026-04-22 14:24 | 56.19040 | 107.20016 | 39082 ft | 483 kts | 94° |
| 2026-04-22 14:24 | 56.18368 | 107.32028 | 39081 ft | 482 kts | 94° |
| 2026-04-22 14:25 | 56.17685 | 107.44010 | 39080 ft | 482 kts | 95° |
| 2026-04-22 14:25 | 56.16994 | 107.55985 | 39052 ft | 482 kts | 95° |
| 2026-04-22 14:26 | 56.16288 | 107.67957 | 39033 ft | 482 kts | 95° |
| 2026-04-22 14:26 | 56.15574 | 107.79843 | 39025 ft | 482 kts | 95° |
| 2026-04-22 14:27 | 56.14844 | 107.91824 | 39021 ft | 483 kts | 95° |
| 2026-04-22 14:27 | 56.14105 | 108.03795 | 39018 ft | 483 kts | 95° |
| 2026-04-22 14:28 | 56.13366 | 108.15760 | 39015 ft | 483 kts | 95° |
| 2026-04-22 14:28 | 56.12600 | 108.27709 | 39012 ft | 482 kts | 95° |
| 2026-04-22 14:29 | 56.11823 | 108.39675 | 39010 ft | 482 kts | 96° |
| 2026-04-22 14:29 | 56.11039 | 108.51586 | 39008 ft | 481 kts | 96° |
| 2026-04-22 14:30 | 56.10244 | 108.63402 | 39006 ft | 480 kts | 96° |
| 2026-04-22 14:30 | 56.09434 | 108.75278 | 39004 ft | 479 kts | 96° |
| 2026-04-22 14:31 | 56.08616 | 108.87132 | 39001 ft | 478 kts | 96° |
| 2026-04-22 14:31 | 56.07795 | 108.98940 | 38999 ft | 478 kts | 97° |
| 2026-04-22 14:32 | 56.06972 | 109.10765 | 38997 ft | 477 kts | 97° |
| 2026-04-22 14:32 | 56.06129 | 109.22549 | 38995 ft | 477 kts | 97° |
| 2026-04-22 14:33 | 56.05279 | 109.34300 | 38993 ft | 476 kts | 97° |
| 2026-04-22 14:33 | 56.04421 | 109.45981 | 38991 ft | 476 kts | 97° |
| 2026-04-22 14:34 | 56.03541 | 109.57724 | 38989 ft | 476 kts | 97° |
| 2026-04-22 14:34 | 56.02653 | 109.69491 | 38987 ft | 477 kts | 98° |
| 2026-04-22 14:35 | 56.01745 | 109.81239 | 38985 ft | 477 kts | 98° |
| 2026-04-22 14:35 | 56.00837 | 109.93008 | 38983 ft | 477 kts | 98° |
| 2026-04-22 14:36 | 55.99918 | 110.04749 | 38981 ft | 477 kts | 98° |
| 2026-04-22 14:36 | 55.99010 | 110.16417 | 38979 ft | 477 kts | 98° |
| 2026-04-22 14:37 | 55.98070 | 110.28137 | 38977 ft | 477 kts | 98° |
| 2026-04-22 14:37 | 55.97121 | 110.39852 | 38975 ft | 477 kts | 98° |
| 2026-04-22 14:38 | 55.96319 | 110.49591 | 38974 ft | 477 kts | 98° |
| 2026-04-22 14:38 | 55.95333 | 110.61408 | 38972 ft | 478 kts | 98° |
| 2026-04-22 14:39 | 55.94342 | 110.73143 | 38970 ft | 478 kts | 98° |
| 2026-04-22 14:39 | 55.93354 | 110.84867 | 38968 ft | 477 kts | 98° |
| 2026-04-22 14:40 | 55.91853 | 111.02352 | 38966 ft | 477 kts | 98° |
| 2026-04-22 14:40 | 55.90851 | 111.14040 | 38964 ft | 476 kts | 99° |
| 2026-04-22 14:41 | 55.89819 | 111.25703 | 38962 ft | 475 kts | 99° |
| 2026-04-22 14:41 | 55.88778 | 111.37333 | 38960 ft | 475 kts | 99° |
| 2026-04-22 14:42 | 55.87734 | 111.48921 | 38959 ft | 474 kts | 99° |
| 2026-04-22 14:42 | 55.86677 | 111.60504 | 38957 ft | 472 kts | 99° |
| 2026-04-22 14:43 | 55.85614 | 111.71967 | 38955 ft | 472 kts | 99° |
| 2026-04-22 14:43 | 55.84538 | 111.83463 | 38953 ft | 471 kts | 99° |
| 2026-04-22 14:44 | 55.83448 | 111.94948 | 38952 ft | 470 kts | 99° |
| 2026-04-22 14:44 | 55.82360 | 112.06434 | 38950 ft | 470 kts | 99° |
| 2026-04-22 14:45 | 55.81263 | 112.17890 | 38949 ft | 470 kts | 100° |
| 2026-04-22 14:45 | 55.80152 | 112.29324 | 38947 ft | 469 kts | 100° |
| 2026-04-22 14:46 | 55.79025 | 112.40762 | 38930 ft | 470 kts | 100° |
| 2026-04-22 14:46 | 55.77887 | 112.52207 | 38921 ft | 470 kts | 100° |
| 2026-04-22 14:47 | 55.76738 | 112.63648 | 38917 ft | 470 kts | 101° |
| 2026-04-22 14:47 | 55.75574 | 112.75067 | 38915 ft | 470 kts | 101° |
| 2026-04-22 14:48 | 55.74403 | 112.86480 | 38914 ft | 470 kts | 101° |
| 2026-04-22 14:48 | 55.73219 | 112.97891 | 38913 ft | 470 kts | 101° |
| 2026-04-22 14:49 | 55.72048 | 113.09269 | 38912 ft | 469 kts | 101° |
| 2026-04-22 14:49 | 55.70856 | 113.20570 | 38912 ft | 468 kts | 101° |
| 2026-04-22 14:50 | 55.69655 | 113.31907 | 38910 ft | 467 kts | 102° |
| 2026-04-22 14:50 | 55.68441 | 113.43215 | 38898 ft | 466 kts | 102° |
| 2026-04-22 14:51 | 55.67221 | 113.54480 | 38891 ft | 465 kts | 102° |
| 2026-04-22 14:51 | 55.65991 | 113.65719 | 38888 ft | 464 kts | 102° |
| 2026-04-22 14:52 | 55.64754 | 113.76931 | 38886 ft | 463 kts | 102° |
| 2026-04-22 14:52 | 55.63508 | 113.88108 | 38886 ft | 463 kts | 102° |
| 2026-04-22 14:53 | 55.62252 | 113.99275 | 38886 ft | 463 kts | 103° |
| 2026-04-22 14:53 | 55.61005 | 114.10439 | 38889 ft | 462 kts | 103° |
| 2026-04-22 14:54 | 55.59733 | 114.21583 | 38893 ft | 462 kts | 103° |
| 2026-04-22 14:54 | 55.58463 | 114.32666 | 38895 ft | 462 kts | 103° |
| 2026-04-22 14:55 | 55.57168 | 114.43805 | 38896 ft | 462 kts | 103° |
| 2026-04-22 14:55 | 55.55861 | 114.54941 | 38896 ft | 462 kts | 103° |
| 2026-04-22 14:56 | 55.54545 | 114.66056 | 38896 ft | 463 kts | 103° |
| 2026-04-22 14:56 | 55.53217 | 114.77195 | 38896 ft | 463 kts | 103° |
| 2026-04-22 14:57 | 55.51887 | 114.88250 | 38896 ft | 463 kts | 103° |
| 2026-04-22 14:57 | 55.50538 | 114.99362 | 38897 ft | 463 kts | 103° |
| 2026-04-22 14:58 | 55.49202 | 115.10485 | 38897 ft | 463 kts | 103° |
| 2026-04-22 14:58 | 55.47837 | 115.21572 | 38897 ft | 463 kts | 104° |
| 2026-04-22 14:59 | 55.46465 | 115.32663 | 38898 ft | 463 kts | 104° |
| 2026-04-22 14:59 | 55.45079 | 115.43735 | 38898 ft | 462 kts | 104° |
| 2026-04-22 15:00 | 55.43692 | 115.54715 | 38898 ft | 462 kts | 104° |
| 2026-04-22 15:00 | 55.42289 | 115.65739 | 38898 ft | 462 kts | 104° |
| 2026-04-22 15:01 | 55.40875 | 115.76770 | 38899 ft | 461 kts | 104° |
| 2026-04-22 15:01 | 55.39452 | 115.87789 | 38899 ft | 461 kts | 104° |
| 2026-04-22 15:02 | 55.38021 | 115.98781 | 38900 ft | 461 kts | 104° |
| 2026-04-22 15:02 | 55.36597 | 116.09785 | 38900 ft | 460 kts | 104° |
| 2026-04-22 15:03 | 55.35155 | 116.20738 | 38901 ft | 460 kts | 105° |
| 2026-04-22 15:03 | 55.33696 | 116.31615 | 38901 ft | 460 kts | 105° |
| 2026-04-22 15:04 | 55.32229 | 116.42544 | 38902 ft | 460 kts | 105° |
| 2026-04-22 15:04 | 55.30740 | 116.53469 | 38903 ft | 460 kts | 105° |
| 2026-04-22 15:05 | 55.29242 | 116.64377 | 38903 ft | 460 kts | 105° |
| 2026-04-22 15:05 | 55.27738 | 116.75258 | 38904 ft | 459 kts | 105° |
| 2026-04-22 15:06 | 55.26220 | 116.86154 | 38905 ft | 459 kts | 105° |
| 2026-04-22 15:06 | 55.24696 | 116.97008 | 38905 ft | 459 kts | 105° |
| 2026-04-22 15:07 | 55.23179 | 117.07859 | 38907 ft | 456 kts | 106° |
| 2026-04-22 15:07 | 55.21659 | 117.18599 | 38906 ft | 453 kts | 106° |
| 2026-04-22 15:08 | 55.20128 | 117.29302 | 38907 ft | 452 kts | 106° |
| 2026-04-22 15:08 | 55.18604 | 117.39894 | 38908 ft | 452 kts | 106° |
| 2026-04-22 15:09 | 55.17055 | 117.50540 | 38909 ft | 451 kts | 106° |
| 2026-04-22 15:09 | 55.15535 | 117.61196 | 38910 ft | 451 kts | 106° |
| 2026-04-22 15:10 | 55.14005 | 117.71828 | 38911 ft | 450 kts | 106° |
| 2026-04-22 15:10 | 55.12476 | 117.82436 | 38912 ft | 450 kts | 106° |
| 2026-04-22 15:11 | 55.10946 | 117.92980 | 38913 ft | 450 kts | 106° |
| 2026-04-22 15:11 | 55.09399 | 118.03559 | 38915 ft | 450 kts | 107° |
| 2026-04-22 15:12 | 55.07822 | 118.14178 | 38914 ft | 448 kts | 107° |
| 2026-04-22 15:12 | 55.06233 | 118.24683 | 38915 ft | 447 kts | 107° |
| 2026-04-22 15:13 | 55.04647 | 118.35093 | 38916 ft | 447 kts | 107° |
| 2026-04-22 15:13 | 55.03042 | 118.45554 | 38917 ft | 447 kts | 107° |
| 2026-04-22 15:14 | 55.01425 | 118.56032 | 38918 ft | 447 kts | 107° |
| 2026-04-22 15:14 | 54.99794 | 118.66492 | 38919 ft | 447 kts | 107° |
| 2026-04-22 15:15 | 54.98158 | 118.76948 | 38920 ft | 447 kts | 107° |
| 2026-04-22 15:15 | 54.96525 | 118.87316 | 38921 ft | 447 kts | 107° |
| 2026-04-22 15:16 | 54.94871 | 118.97747 | 38922 ft | 447 kts | 107° |
| 2026-04-22 15:16 | 54.93237 | 119.08104 | 38923 ft | 446 kts | 107° |
| 2026-04-22 15:17 | 54.91568 | 119.18503 | 38927 ft | 446 kts | 108° |
| 2026-04-22 15:17 | 54.89907 | 119.28881 | 38929 ft | 446 kts | 107° |
| 2026-04-22 15:18 | 54.88232 | 119.39258 | 38930 ft | 446 kts | 108° |
| 2026-04-22 15:18 | 54.86549 | 119.49618 | 38932 ft | 445 kts | 108° |
| 2026-04-22 15:19 | 54.84858 | 119.59958 | 38933 ft | 445 kts | 108° |
| 2026-04-22 15:19 | 54.83156 | 119.70287 | 38934 ft | 445 kts | 108° |
| 2026-04-22 15:20 | 54.81453 | 119.80576 | 38935 ft | 445 kts | 108° |
| 2026-04-22 15:20 | 54.79734 | 119.90895 | 38936 ft | 445 kts | 108° |
| 2026-04-22 15:21 | 54.78007 | 120.01206 | 38937 ft | 445 kts | 108° |
| 2026-04-22 15:21 | 54.76300 | 120.11494 | 38938 ft | 444 kts | 108° |
| 2026-04-22 15:22 | 54.74854 | 120.20017 | 38938 ft | 443 kts | 108° |
| 2026-04-22 15:22 | 54.73114 | 120.30252 | 38939 ft | 442 kts | 108° |
| 2026-04-22 15:23 | 54.71365 | 120.40466 | 38940 ft | 442 kts | 108° |
| 2026-04-22 15:23 | 54.69606 | 120.50670 | 38938 ft | 442 kts | 108° |
| 2026-04-22 15:24 | 54.67844 | 120.60853 | 38941 ft | 442 kts | 108° |
| 2026-04-22 15:24 | 54.66080 | 120.70947 | 38943 ft | 441 kts | 108° |
| 2026-04-22 15:25 | 54.64304 | 120.81094 | 38944 ft | 441 kts | 108° |
| 2026-04-22 15:25 | 54.62520 | 120.91201 | 38945 ft | 440 kts | 109° |
| 2026-04-22 15:26 | 54.60727 | 121.01315 | 38946 ft | 440 kts | 109° |
| 2026-04-22 15:26 | 54.58956 | 121.11409 | 38947 ft | 439 kts | 109° |
| 2026-04-22 15:27 | 54.57155 | 121.21462 | 38948 ft | 439 kts | 109° |
| 2026-04-22 15:27 | 54.55383 | 121.31520 | 38949 ft | 438 kts | 108° |
| 2026-04-22 15:28 | 54.53570 | 121.41542 | 38949 ft | 438 kts | 109° |
| 2026-04-22 15:28 | 54.51727 | 121.51533 | 38950 ft | 438 kts | 109° |
| 2026-04-22 15:29 | 54.49888 | 121.61521 | 38951 ft | 438 kts | 109° |
| 2026-04-22 15:30 | 54.47133 | 121.76438 | 38953 ft | 438 kts | 109° |
| 2026-04-22 15:30 | 54.45281 | 121.86404 | 38953 ft | 438 kts | 109° |
| 2026-04-22 15:31 | 54.43419 | 121.96365 | 38954 ft | 438 kts | 109° |
| 2026-04-22 15:31 | 54.41459 | 122.06278 | 38955 ft | 437 kts | 111° |
| 2026-04-22 15:32 | 54.39298 | 122.16025 | 38956 ft | 436 kts | 112° |
| 2026-04-22 15:32 | 54.37079 | 122.25727 | 38956 ft | 436 kts | 112° |
| 2026-04-22 15:33 | 54.34833 | 122.35383 | 38957 ft | 436 kts | 113° |
| 2026-04-22 15:33 | 54.32569 | 122.45021 | 38958 ft | 435 kts | 113° |
| 2026-04-22 15:34 | 54.30294 | 122.54621 | 38958 ft | 435 kts | 113° |
| 2026-04-22 15:34 | 54.28011 | 122.64204 | 38959 ft | 434 kts | 114° |
| 2026-04-22 15:35 | 54.25726 | 122.73748 | 38960 ft | 433 kts | 114° |
| 2026-04-22 15:35 | 54.23444 | 122.83228 | 38960 ft | 433 kts | 114° |
| 2026-04-22 15:36 | 54.21148 | 122.92722 | 38961 ft | 432 kts | 114° |
| 2026-04-22 15:36 | 54.18848 | 123.02212 | 38961 ft | 431 kts | 113° |
| 2026-04-22 15:37 | 54.16567 | 123.11671 | 38962 ft | 431 kts | 114° |
| 2026-04-22 15:37 | 54.14276 | 123.21045 | 38962 ft | 430 kts | 114° |
| 2026-04-22 15:38 | 54.11964 | 123.30450 | 38963 ft | 430 kts | 114° |
| 2026-04-22 15:38 | 54.08478 | 123.44559 | 38964 ft | 430 kts | 114° |
| 2026-04-22 15:39 | 54.06142 | 123.53951 | 38964 ft | 430 kts | 114° |
| 2026-04-22 15:39 | 54.03804 | 123.63318 | 38965 ft | 430 kts | 114° |
| 2026-04-22 15:40 | 54.01456 | 123.72670 | 38963 ft | 430 kts | 114° |
| 2026-04-22 15:40 | 53.99099 | 123.82016 | 38963 ft | 430 kts | 113° |
| 2026-04-22 15:41 | 53.96743 | 123.91356 | 38966 ft | 429 kts | 114° |
| 2026-04-22 15:41 | 53.94375 | 124.00677 | 38966 ft | 430 kts | 114° |
| 2026-04-22 15:42 | 53.92038 | 124.09945 | 38966 ft | 430 kts | 114° |
| 2026-04-22 15:42 | 53.89656 | 124.19247 | 38966 ft | 430 kts | 113° |
| 2026-04-22 15:43 | 53.87269 | 124.28536 | 38966 ft | 430 kts | 114° |
| 2026-04-22 15:43 | 53.84878 | 124.37818 | 38967 ft | 430 kts | 115° |
| 2026-04-22 15:44 | 53.82478 | 124.47102 | 38968 ft | 430 kts | 115° |
| 2026-04-22 15:44 | 53.80058 | 124.56390 | 38969 ft | 431 kts | 115° |
| 2026-04-22 15:45 | 53.77640 | 124.65663 | 38968 ft | 431 kts | 115° |
| 2026-04-22 15:45 | 53.75205 | 124.74947 | 38970 ft | 431 kts | 114° |
| 2026-04-22 15:46 | 53.72743 | 124.84203 | 38966 ft | 432 kts | 114° |
| 2026-04-22 15:46 | 53.70278 | 124.93456 | 38969 ft | 432 kts | 114° |
| 2026-04-22 15:47 | 53.67823 | 125.02717 | 38968 ft | 432 kts | 114° |
| 2026-04-22 15:47 | 53.65381 | 125.11927 | 38969 ft | 432 kts | 114° |
| 2026-04-22 15:48 | 53.62918 | 125.21172 | 38970 ft | 432 kts | 114° |
| 2026-04-22 15:48 | 53.60441 | 125.30404 | 38987 ft | 432 kts | 114° |
| 2026-04-22 15:49 | 53.57942 | 125.39604 | 38994 ft | 432 kts | 117° |
| 2026-04-22 15:49 | 53.55443 | 125.48804 | 38994 ft | 432 kts | 114° |
| 2026-04-22 15:50 | 53.52950 | 125.57990 | 38997 ft | 432 kts | 114° |
| 2026-04-22 15:50 | 53.50448 | 125.67117 | 38993 ft | 432 kts | 114° |
| 2026-04-22 15:51 | 53.47730 | 125.76096 | 38997 ft | 431 kts | 120° |
| 2026-04-22 15:51 | 53.44428 | 125.84506 | 38993 ft | 431 kts | 125° |
| 2026-04-22 15:52 | 53.40866 | 125.92601 | 38994 ft | 432 kts | 126° |
| 2026-04-22 15:52 | 53.37199 | 126.00586 | 38992 ft | 432 kts | 125° |
| 2026-04-22 15:53 | 53.33518 | 126.08527 | 38993 ft | 432 kts | 128° |
| 2026-04-22 15:53 | 53.29817 | 126.16435 | 38994 ft | 432 kts | 127° |
| 2026-04-22 15:54 | 53.26108 | 126.24320 | 38992 ft | 432 kts | 125° |
| 2026-04-22 15:54 | 53.22384 | 126.32198 | 38990 ft | 432 kts | 128° |
| 2026-04-22 15:55 | 53.18645 | 126.40054 | 38988 ft | 432 kts | 129° |
| 2026-04-22 15:55 | 53.14897 | 126.47885 | 38987 ft | 432 kts | 129° |
| 2026-04-22 15:56 | 53.11153 | 126.55715 | 38988 ft | 432 kts | 127° |
| 2026-04-22 15:56 | 53.07419 | 126.63525 | 38986 ft | 433 kts | 128° |
| 2026-04-22 15:57 | 53.03660 | 126.71338 | 38985 ft | 433 kts | 128° |
| 2026-04-22 15:57 | 52.99885 | 126.79138 | 38985 ft | 433 kts | 128° |
| 2026-04-22 15:58 | 52.96111 | 126.86925 | 38987 ft | 432 kts | 126° |
| 2026-04-22 15:58 | 52.92329 | 126.94678 | 38984 ft | 432 kts | 129° |
| 2026-04-22 15:59 | 52.88559 | 127.02426 | 38984 ft | 432 kts | 127° |
| 2026-04-22 15:59 | 52.84795 | 127.10195 | 38985 ft | 432 kts | 128° |
| 2026-04-22 16:00 | 52.81010 | 127.17932 | 38979 ft | 432 kts | 129° |
| 2026-04-22 16:00 | 52.77217 | 127.25648 | 38974 ft | 432 kts | 129° |
| 2026-04-22 16:01 | 52.73444 | 127.33303 | 38973 ft | 432 kts | 128° |
| 2026-04-22 16:01 | 52.69638 | 127.40991 | 38969 ft | 433 kts | 128° |
| 2026-04-22 16:02 | 52.65809 | 127.48671 | 38961 ft | 433 kts | 128° |
| 2026-04-22 16:02 | 52.62618 | 127.55031 | 38960 ft | 433 kts | 130° |
| 2026-04-22 16:03 | 52.58765 | 127.62674 | 38958 ft | 434 kts | 128° |
| 2026-04-22 16:03 | 52.54903 | 127.70332 | 38957 ft | 435 kts | 129° |
| 2026-04-22 16:04 | 52.51037 | 127.77986 | 38955 ft | 435 kts | 129° |
| 2026-04-22 16:04 | 52.47131 | 127.85680 | 38954 ft | 436 kts | 129° |
| 2026-04-22 16:05 | 52.43276 | 127.93267 | 38955 ft | 436 kts | 129° |
| 2026-04-22 16:05 | 52.39376 | 128.00889 | 38956 ft | 437 kts | 128° |
| 2026-04-22 16:06 | 52.35486 | 128.08537 | 38956 ft | 436 kts | 128° |
| 2026-04-22 16:06 | 52.31587 | 128.16143 | 38956 ft | 437 kts | 129° |
| 2026-04-22 16:07 | 52.27672 | 128.23724 | 38957 ft | 437 kts | 129° |
| 2026-04-22 16:07 | 52.23753 | 128.31300 | 38955 ft | 437 kts | 128° |
| 2026-04-22 16:08 | 52.19811 | 128.38880 | 38955 ft | 437 kts | 129° |
| 2026-04-22 16:08 | 52.15879 | 128.46423 | 38956 ft | 436 kts | 129° |
| 2026-04-22 16:09 | 52.11976 | 128.53910 | 38958 ft | 436 kts | 129° |
| 2026-04-22 16:09 | 52.08031 | 128.61421 | 38955 ft | 436 kts | 129° |
| 2026-04-22 16:10 | 52.04097 | 128.68914 | 38956 ft | 435 kts | 130° |
| 2026-04-22 16:10 | 52.00156 | 128.76383 | 38956 ft | 435 kts | 129° |
| 2026-04-22 16:11 | 51.96216 | 128.83845 | 38955 ft | 438 kts | 129° |
| 2026-04-22 16:11 | 51.92236 | 128.91377 | 38955 ft | 439 kts | 130° |
| 2026-04-22 16:12 | 51.88224 | 128.98948 | 38955 ft | 440 kts | 128° |
| 2026-04-22 16:12 | 51.84239 | 129.06470 | 38957 ft | 440 kts | 130° |
| 2026-04-22 16:13 | 51.80235 | 129.13969 | 38955 ft | 440 kts | 129° |
| 2026-04-22 16:13 | 51.76242 | 129.21448 | 38956 ft | 440 kts | 129° |
| 2026-04-22 16:14 | 51.72251 | 129.28858 | 38954 ft | 440 kts | 133° |
| 2026-04-22 16:14 | 51.68232 | 129.36314 | 38954 ft | 440 kts | 131° |
| 2026-04-22 16:15 | 51.64211 | 129.43755 | 38952 ft | 440 kts | 129° |
| 2026-04-22 16:15 | 51.60190 | 129.51177 | 38953 ft | 440 kts | 129° |
| 2026-04-22 16:16 | 51.56159 | 129.58593 | 38956 ft | 440 kts | 130° |
| 2026-04-22 16:16 | 51.52126 | 129.65992 | 38953 ft | 440 kts | 129° |
| 2026-04-22 16:17 | 51.48090 | 129.73366 | 38952 ft | 439 kts | 130° |
| 2026-04-22 16:17 | 51.44072 | 129.80681 | 38954 ft | 440 kts | 130° |
| 2026-04-22 16:18 | 51.39996 | 129.88102 | 38958 ft | 440 kts | 129° |
| 2026-04-22 16:18 | 51.35945 | 129.95447 | 38957 ft | 440 kts | 131° |
| 2026-04-22 16:19 | 51.31861 | 130.02730 | 38957 ft | 440 kts | 131° |
| 2026-04-22 16:19 | 51.27750 | 130.09975 | 38956 ft | 439 kts | 130° |
| 2026-04-22 16:20 | 51.23628 | 130.17188 | 38953 ft | 440 kts | 132° |
| 2026-04-22 16:20 | 51.19523 | 130.24329 | 38954 ft | 440 kts | 127° |
| 2026-04-22 16:21 | 51.15387 | 130.31532 | 38954 ft | 440 kts | 132° |
| 2026-04-22 16:21 | 51.11228 | 130.38699 | 38953 ft | 441 kts | 132° |
| 2026-04-22 16:22 | 51.04985 | 130.49434 | 38952 ft | 441 kts | 132° |
| 2026-04-22 16:23 | 50.98722 | 130.60164 | 38950 ft | 441 kts | 131° |
| 2026-04-22 16:23 | 50.94552 | 130.67290 | 38949 ft | 441 kts | 132° |
| 2026-04-22 16:24 | 50.88270 | 130.77994 | 38947 ft | 442 kts | 132° |
| 2026-04-22 16:25 | 50.84074 | 130.85114 | 38946 ft | 442 kts | 132° |
| 2026-04-22 16:25 | 50.77771 | 130.95774 | 38944 ft | 442 kts | 132° |
| 2026-04-22 16:26 | 50.73567 | 131.02881 | 38942 ft | 442 kts | 132° |
| 2026-04-22 16:26 | 50.69367 | 131.09979 | 38941 ft | 443 kts | 132° |
| 2026-04-22 16:27 | 50.65154 | 131.17054 | 38939 ft | 443 kts | 132° |
| 2026-04-22 16:27 | 50.60926 | 131.24117 | 38937 ft | 443 kts | 132° |
| 2026-04-22 16:28 | 50.56724 | 131.31125 | 38936 ft | 443 kts | 133° |
| 2026-04-22 16:28 | 50.52487 | 131.38163 | 38934 ft | 443 kts | 133° |
| 2026-04-22 16:29 | 50.48241 | 131.45189 | 38932 ft | 444 kts | 133° |
| 2026-04-22 16:29 | 50.43986 | 131.52229 | 38931 ft | 444 kts | 133° |
| 2026-04-22 16:30 | 50.39722 | 131.59249 | 38929 ft | 444 kts | 133° |
| 2026-04-22 16:30 | 50.35451 | 131.66262 | 38927 ft | 445 kts | 133° |
| 2026-04-22 16:31 | 50.31173 | 131.73272 | 38925 ft | 446 kts | 133° |
| 2026-04-22 16:31 | 50.26915 | 131.80236 | 38923 ft | 446 kts | 133° |
| 2026-04-22 16:32 | 50.22611 | 131.87227 | 38921 ft | 446 kts | 133° |
| 2026-04-22 16:32 | 50.18313 | 131.94218 | 38919 ft | 446 kts | 133° |
| 2026-04-22 16:33 | 50.14004 | 132.01203 | 38917 ft | 447 kts | 133° |
| 2026-04-22 16:33 | 50.09704 | 132.08197 | 38914 ft | 447 kts | 133° |
| 2026-04-22 16:34 | 50.05497 | 132.15337 | 38914 ft | 447 kts | 128° |
| 2026-04-22 16:34 | 50.01811 | 132.23106 | 38909 ft | 446 kts | 124° |
| 2026-04-22 16:35 | 49.98391 | 132.31165 | 38906 ft | 446 kts | 122° |
| 2026-04-22 16:35 | 49.95060 | 132.39311 | 38905 ft | 447 kts | 122° |
| 2026-04-22 16:36 | 49.91728 | 132.47469 | 38902 ft | 447 kts | 122° |
| 2026-04-22 16:36 | 49.88409 | 132.55639 | 38900 ft | 448 kts | 122° |
| 2026-04-22 16:37 | 49.85106 | 132.63765 | 38898 ft | 449 kts | 122° |
| 2026-04-22 16:37 | 49.81771 | 132.71942 | 38896 ft | 449 kts | 122° |
| 2026-04-22 16:38 | 49.78428 | 132.80129 | 38893 ft | 450 kts | 122° |
| 2026-04-22 16:38 | 49.75077 | 132.88306 | 38890 ft | 450 kts | 122° |
| 2026-04-22 16:39 | 49.73387 | 132.92431 | 38539 ft | 455 kts | 122° |
| 2026-04-22 16:39 | 49.71692 | 132.96563 | 38058 ft | 455 kts | 122° |
| 2026-04-22 16:39 | 49.69996 | 133.00678 | 37571 ft | 452 kts | 122° |
| 2026-04-22 16:39 | 49.68346 | 133.04718 | 37106 ft | 449 kts | 121° |
| 2026-04-22 16:40 | 49.66685 | 133.08784 | 36651 ft | 447 kts | 122° |
| 2026-04-22 16:40 | 49.65018 | 133.12827 | 36210 ft | 446 kts | 122° |
| 2026-04-22 16:40 | 49.61677 | 133.20894 | 35271 ft | 445 kts | 121° |
| 2026-04-22 16:41 | 49.60009 | 133.24913 | 34769 ft | 444 kts | 121° |
| 2026-04-22 16:41 | 49.58343 | 133.28917 | 34240 ft | 442 kts | 121° |
| 2026-04-22 16:41 | 49.56691 | 133.32886 | 33751 ft | 438 kts | 121° |
| 2026-04-22 16:41 | 49.55047 | 133.36820 | 33274 ft | 434 kts | 121° |
| 2026-04-22 16:42 | 49.53422 | 133.40698 | 32803 ft | 428 kts | 121° |
| 2026-04-22 16:42 | 49.52356 | 133.43247 | 32493 ft | 425 kts | 121° |
| 2026-04-22 16:42 | 49.50765 | 133.47043 | 32012 ft | 419 kts | 121° |
| 2026-04-22 16:42 | 49.49195 | 133.50783 | 31532 ft | 414 kts | 121° |
| 2026-04-22 16:43 | 49.47642 | 133.54479 | 30934 ft | 410 kts | 121° |
| 2026-04-22 16:43 | 49.46101 | 133.58142 | 30292 ft | 405 kts | 121° |
| 2026-04-22 16:43 | 49.44583 | 133.61741 | 29664 ft | 397 kts | 121° |
| 2026-04-22 16:43 | 49.43088 | 133.65291 | 29026 ft | 390 kts | 121° |
| 2026-04-22 16:44 | 49.41631 | 133.68755 | 28376 ft | 383 kts | 121° |
| 2026-04-22 16:44 | 49.40194 | 133.72164 | 27718 ft | 378 kts | 121° |
| 2026-04-22 16:44 | 49.38777 | 133.75527 | 27061 ft | 373 kts | 121° |
| 2026-04-22 16:44 | 49.37374 | 133.78854 | 26404 ft | 369 kts | 121° |
| 2026-04-22 16:45 | 49.35998 | 133.82104 | 25758 ft | 365 kts | 121° |
| 2026-04-22 16:45 | 49.34608 | 133.85393 | 25102 ft | 361 kts | 121° |
| 2026-04-22 16:45 | 49.33261 | 133.88570 | 24464 ft | 358 kts | 121° |
| 2026-04-22 16:45 | 49.31891 | 133.91793 | 23816 ft | 354 kts | 121° |
| 2026-04-22 16:46 | 49.30553 | 133.94949 | 23179 ft | 351 kts | 121° |
| 2026-04-22 16:46 | 49.29228 | 133.98059 | 22548 ft | 349 kts | 121° |
| 2026-04-22 16:46 | 49.27901 | 134.01178 | 21917 ft | 347 kts | 121° |
| 2026-04-22 16:46 | 49.26594 | 134.04273 | 21298 ft | 344 kts | 121° |
| 2026-04-22 16:47 | 49.25314 | 134.07292 | 20690 ft | 341 kts | 121° |
| 2026-04-22 16:47 | 49.24019 | 134.10327 | 20111 ft | 338 kts | 122° |
| 2026-04-22 16:47 | 49.22745 | 134.13311 | 19698 ft | 333 kts | 121° |
| 2026-04-22 16:47 | 49.21474 | 134.16291 | 19286 ft | 336 kts | 122° |
| 2026-04-22 16:48 | 49.20190 | 134.19289 | 18898 ft | 336 kts | 122° |
| 2026-04-22 16:48 | 49.18910 | 134.22275 | 18546 ft | 335 kts | 122° |
| 2026-04-22 16:48 | 49.17632 | 134.25258 | 18197 ft | 335 kts | 122° |
| 2026-04-22 16:48 | 49.16354 | 134.28229 | 17851 ft | 334 kts | 122° |
| 2026-04-22 16:49 | 49.15077 | 134.31194 | 17509 ft | 333 kts | 122° |
| 2026-04-22 16:49 | 49.13822 | 134.34111 | 17174 ft | 332 kts | 122° |
| 2026-04-22 16:49 | 49.12553 | 134.37046 | 16836 ft | 330 kts | 122° |
| 2026-04-22 16:49 | 49.11292 | 134.39969 | 16500 ft | 329 kts | 122° |
| 2026-04-22 16:50 | 49.10044 | 134.42881 | 16168 ft | 327 kts | 121° |
| 2026-04-22 16:50 | 49.08830 | 134.45800 | 15830 ft | 325 kts | 121° |
| 2026-04-22 16:50 | 49.07641 | 134.48732 | 15470 ft | 324 kts | 120° |
| 2026-04-22 16:50 | 49.06463 | 134.51647 | 15111 ft | 321 kts | 120° |
| 2026-04-22 16:51 | 49.05292 | 134.54535 | 14752 ft | 320 kts | 120° |
| 2026-04-22 16:51 | 49.04378 | 134.56797 | 14471 ft | 318 kts | 120° |
| 2026-04-22 16:51 | 49.03223 | 134.59675 | 14114 ft | 316 kts | 120° |
| 2026-04-22 16:51 | 49.02077 | 134.62521 | 13760 ft | 314 kts | 120° |
| 2026-04-22 16:52 | 49.00936 | 134.65355 | 13406 ft | 312 kts | 120° |
| 2026-04-22 16:52 | 48.99807 | 134.68173 | 13054 ft | 311 kts | 120° |
| 2026-04-22 16:52 | 48.98685 | 134.70972 | 12705 ft | 309 kts | 120° |
| 2026-04-22 16:52 | 48.97563 | 134.73756 | 12356 ft | 307 kts | 120° |
| 2026-04-22 16:53 | 48.96450 | 134.76522 | 12009 ft | 305 kts | 120° |
| 2026-04-22 16:53 | 48.95358 | 134.79238 | 11666 ft | 304 kts | 120° |
| 2026-04-22 16:53 | 48.94253 | 134.81971 | 11319 ft | 303 kts | 120° |
| 2026-04-22 16:53 | 48.93154 | 134.84699 | 10974 ft | 302 kts | 120° |
| 2026-04-22 16:54 | 48.92059 | 134.87413 | 10630 ft | 301 kts | 120° |
| 2026-04-22 16:54 | 48.90960 | 134.90129 | 10286 ft | 300 kts | 120° |
| 2026-04-22 16:54 | 48.89872 | 134.92822 | 9964 ft | 296 kts | 120° |
| 2026-04-22 16:54 | 48.88823 | 134.95417 | 9859 ft | 279 kts | 120° |
| 2026-04-22 16:55 | 48.87823 | 134.97882 | 9664 ft | 272 kts | 120° |
| 2026-04-22 16:55 | 48.86832 | 135.00333 | 9341 ft | 272 kts | 120° |
| 2026-04-22 16:55 | 48.85845 | 135.02782 | 9010 ft | 271 kts | 120° |
| 2026-04-22 16:55 | 48.84863 | 135.05221 | 8653 ft | 269 kts | 120° |
| 2026-04-22 16:56 | 48.83897 | 135.07595 | 8314 ft | 266 kts | 120° |
| 2026-04-22 16:56 | 48.82929 | 135.09979 | 7979 ft | 265 kts | 120° |
| 2026-04-22 16:56 | 48.81966 | 135.12352 | 7686 ft | 263 kts | 120° |
| 2026-04-22 16:56 | 48.81002 | 135.14709 | 7398 ft | 263 kts | 120° |
| 2026-04-22 16:57 | 48.80040 | 135.17063 | 7115 ft | 262 kts | 120° |
| 2026-04-22 16:57 | 48.79083 | 135.19412 | 6835 ft | 261 kts | 120° |
| 2026-04-22 16:57 | 48.78128 | 135.21751 | 6559 ft | 260 kts | 120° |
| 2026-04-22 16:57 | 48.77172 | 135.24084 | 6280 ft | 259 kts | 120° |
| 2026-04-22 16:58 | 48.76506 | 135.25619 | 6099 ft | 257 kts | 122° |
| 2026-04-22 16:58 | 48.75105 | 135.28483 | 5653 ft | 256 kts | 127° |
| 2026-04-22 16:58 | 48.73980 | 135.30573 | 5287 ft | 256 kts | 128° |
| 2026-04-22 16:58 | 48.72808 | 135.32648 | 4921 ft | 256 kts | 130° |
| 2026-04-22 16:59 | 48.71625 | 135.34675 | 4564 ft | 256 kts | 131° |
| 2026-04-22 16:59 | 48.70282 | 135.36428 | 4186 ft | 256 kts | 148° |
| 2026-04-22 16:59 | 48.68619 | 135.37274 | 3943 ft | 249 kts | 172° |
| 2026-04-22 16:59 | 48.66929 | 135.37074 | 3737 ft | 242 kts | 196° |
| 2026-04-22 17:00 | 48.65482 | 135.35908 | 3571 ft | 232 kts | 219° |
| 2026-04-22 17:00 | 48.63263 | 135.32820 | 3193 ft | 198 kts | 224° |
| 2026-04-22 17:00 | 48.62277 | 135.31457 | 2887 ft | 184 kts | 223° |
| 2026-04-22 17:01 | 48.61384 | 135.30239 | 2667 ft | 165 kts | 223° |
| 2026-04-22 17:01 | 48.60534 | 135.29076 | 2163 ft | 165 kts | 223° |
| 2026-04-22 17:01 | 48.59689 | 135.27925 | 1772 ft | 160 kts | 223° |
| 2026-04-22 17:01 | 48.58879 | 135.26824 | 1433 ft | 154 kts | 223° |
| 2026-04-22 17:02 | 48.58099 | 135.25757 | 1201 ft | 150 kts | 223° |
| 2026-04-22 17:02 | 48.57311 | 135.24686 | 1080 ft | 153 kts | 223° |
| 2026-04-22 17:02 | 48.56529 | 135.23621 | 891 ft | 150 kts | 222° |
| 2026-04-22 17:02 | 48.55770 | 135.22599 | 704 ft | 146 kts | 222° |
| 2026-04-22 17:03 | 48.55030 | 135.21582 | 522 ft | 144 kts | 223° |
| 2026-04-22 17:03 | 48.54283 | 135.20567 | 361 ft | 141 kts | 222° |
| 2026-04-22 17:03 | 48.53576 | 135.19612 | 260 ft | 130 kts | 222° |
| 2026-04-22 17:03 | 48.53345 | 135.19301 | 258 ft | 117 kts | 222° |
| 2026-04-22 17:04 | 48.52860 | 135.18631 | 258 ft | 75 kts | 223° |
| 2026-04-22 17:04 | 48.52627 | 135.18318 | 258 ft | 17 kts | 222° |
| 2026-04-22 17:04 | 48.52546 | 135.18206 | 258 ft | 14 kts | 222° |
| 2026-04-22 17:04 | 48.52479 | 135.18115 | 258 ft | 12 kts | 222° |
| 2026-04-22 17:05 | 48.52427 | 135.18042 | 258 ft | 9 kts | 223° |
| 2026-04-22 17:05 | 48.52386 | 135.17985 | 258 ft | 7 kts | 223° |
| 2026-04-22 17:05 | 48.52358 | 135.17945 | 258 ft | 4 kts | 223° |
| 2026-04-22 17:05 | 48.52339 | 135.17920 | 258 ft | 3 kts | 220° |
| 2026-04-22 17:06 | 48.52321 | 135.17897 | 258 ft | 4 kts | 220° |
| 2026-04-22 17:06 | 48.52301 | 135.17871 | 258 ft | 4 kts | 221° |
| 2026-04-22 17:06 | 48.52288 | 135.17843 | 258 ft | 3 kts | 256° |
| 2026-04-22 17:06 | 48.52288 | 135.17812 | 258 ft | 3 kts | 281° |
| 2026-04-22 17:07 | 48.52296 | 135.17782 | 258 ft | 3 kts | 296° |
| 2026-04-22 17:07 | 48.52318 | 135.17734 | 258 ft | 8 kts | 311° |
| 2026-04-22 17:07 | 48.52358 | 135.17668 | 258 ft | 9 kts | 312° |
| 2026-04-22 17:07 | 48.52400 | 135.17597 | 258 ft | 9 kts | 312° |
| 2026-04-22 17:08 | 48.52445 | 135.17522 | 258 ft | 10 kts | 312° |
| 2026-04-22 17:08 | 48.52490 | 135.17447 | 258 ft | 9 kts | 312° |
| 2026-04-22 17:08 | 48.52532 | 135.17377 | 258 ft | 9 kts | 310° |
| 2026-04-22 17:08 | 48.52565 | 135.17306 | 258 ft | 8 kts | 310° |
| 2026-04-22 17:09 | 48.52582 | 135.17277 | 258 ft | 0 kts | 313° |